createdAt,value
2018-11-28T00:00:29.584Z,76.28
2018-11-28T00:03:03.217Z,77.01
2018-11-28T00:05:32.280Z,76.15
2018-11-28T00:08:01.837Z,76.39
2018-11-28T00:10:30.784Z,76.51
2018-11-28T00:12:59.618Z,77.59
2018-11-28T00:15:29.032Z,78.34
2018-11-28T00:17:57.910Z,76.99
2018-11-28T00:20:26.684Z,76.69
2018-11-28T00:22:55.463Z,76.05
2018-11-28T00:25:24.841Z,75.60
2018-11-28T00:27:53.617Z,75.49
2018-11-28T00:30:24.101Z,75.32
2018-11-28T00:32:52.983Z,74.99
2018-11-28T00:35:22.705Z,76.14
2018-11-28T00:37:51.529Z,76.94
2018-11-28T00:40:23.449Z,76.55
2018-11-28T00:42:53.059Z,77.00
2018-11-28T00:45:24.304Z,76.54
2018-11-28T00:47:53.104Z,76.89
2018-11-28T00:50:26.849Z,76.85
2018-11-28T00:52:56.587Z,76.55
2018-11-28T00:55:25.372Z,76.52
2018-11-28T00:57:54.289Z,75.38
2018-11-28T01:00:24.888Z,75.27
2018-11-28T01:02:54.389Z,75.68
2018-11-28T01:05:23.264Z,74.74
2018-11-28T01:07:54.869Z,74.88
2018-11-28T01:10:24.684Z,74.68
2018-11-28T01:12:55.257Z,76.27
2018-11-28T01:15:24.046Z,75.77
2018-11-28T01:17:52.933Z,75.68
2018-11-28T01:20:23.054Z,75.44
2018-11-28T01:22:51.852Z,76.19
2018-11-28T01:25:22.331Z,76.13
2018-11-28T01:27:51.585Z,75.92
2018-11-28T01:30:23.141Z,76.26
2018-11-28T01:32:52.026Z,76.56
2018-11-28T01:35:21.752Z,76.27
2018-11-28T01:37:50.679Z,75.90
2018-11-28T01:40:21.764Z,76.14
2018-11-28T01:42:51.121Z,77.03
2018-11-28T01:45:21.754Z,77.05
2018-11-28T01:47:50.726Z,77.00
2018-11-28T01:50:21.610Z,76.34
2018-11-28T01:52:51.184Z,75.76
2018-11-28T01:55:21.620Z,75.99
2018-11-28T01:57:53.703Z,76.11
2018-11-28T02:00:25.642Z,76.32
2018-11-28T02:03:02.569Z,76.62
2018-11-28T02:05:31.435Z,75.87
2018-11-28T02:08:01.125Z,75.49
2018-11-28T02:10:30.497Z,76.15
2018-11-28T02:12:59.282Z,75.94
2018-11-28T02:15:28.517Z,75.15
2018-11-28T02:17:58.292Z,76.27
2018-11-28T02:20:27.120Z,76.19
2018-11-28T02:22:57.841Z,76.02
2018-11-28T02:25:27.769Z,76.02
2018-11-28T02:27:56.552Z,76.89
2018-11-28T02:30:27.299Z,76.36
2018-11-28T02:32:56.091Z,76.36
2018-11-28T02:35:25.233Z,76.38
2018-11-28T02:37:54.620Z,75.84
2018-11-28T02:40:23.742Z,75.95
2018-11-28T02:42:53.485Z,76.21
2018-11-28T02:45:22.985Z,76.23
2018-11-28T02:47:52.551Z,76.44
2018-11-28T02:50:22.928Z,76.08
2018-11-28T02:52:52.680Z,75.35
2018-11-28T02:55:22.183Z,76.61
2018-11-28T02:57:52.640Z,75.98
2018-11-28T03:00:23.420Z,76.26
2018-11-28T03:02:53.014Z,75.88
2018-11-28T03:05:21.908Z,75.86
2018-11-28T03:07:51.197Z,74.54
2018-11-28T03:10:22.050Z,73.58
2018-11-28T03:12:51.116Z,74.28
2018-11-28T03:15:26.668Z,74.58
2018-11-28T03:17:55.518Z,75.26
2018-11-28T03:20:24.779Z,76.24
2018-11-28T03:22:53.620Z,76.08
2018-11-28T03:25:22.943Z,75.55
2018-11-28T03:27:52.051Z,76.14
2018-11-28T03:30:23.711Z,75.99
2018-11-28T03:32:52.570Z,75.49
2018-11-28T03:35:22.007Z,75.62
2018-11-28T03:37:51.083Z,75.13
2018-11-28T03:40:20.121Z,75.58
2018-11-28T03:42:49.709Z,75.05
2018-11-28T03:45:18.491Z,75.23
2018-11-28T03:47:47.275Z,75.14
2018-11-28T03:50:17.617Z,75.31
2018-11-28T03:52:46.389Z,75.13
2018-11-28T03:55:22.588Z,75.60
2018-11-28T03:57:51.497Z,75.75
2018-11-28T04:00:21.716Z,76.19
2018-11-28T04:02:51.353Z,75.63
2018-11-28T04:05:20.107Z,76.27
2018-11-28T04:07:49.464Z,75.56
2018-11-28T04:10:25.661Z,75.47
2018-11-28T04:12:54.443Z,75.79
2018-11-28T04:15:23.233Z,75.81
2018-11-28T04:17:52.224Z,76.02
2018-11-28T04:20:23.337Z,75.94
2018-11-28T04:22:52.244Z,75.58
2018-11-28T04:25:26.801Z,76.72
2018-11-28T04:27:55.600Z,76.41
2018-11-28T04:30:26.588Z,76.88
2018-11-28T04:32:56.085Z,76.92
2018-11-28T04:35:25.031Z,77.23
2018-11-28T04:37:55.124Z,76.97
2018-11-28T04:40:24.541Z,76.10
2018-11-28T04:42:54.090Z,75.75
2018-11-28T04:45:23.559Z,75.14
2018-11-28T04:47:53.316Z,74.79
2018-11-28T04:50:24.206Z,75.33
2018-11-28T04:52:53.151Z,75.76
2018-11-28T04:55:22.556Z,76.14
2018-11-28T04:57:51.397Z,76.53
2018-11-28T05:00:22.787Z,76.56
2018-11-28T05:02:53.091Z,76.68
2018-11-28T05:05:22.397Z,76.97
2018-11-28T05:07:52.632Z,77.12
2018-11-28T05:10:25.425Z,76.43
2018-11-28T05:12:54.711Z,76.63
2018-11-28T05:15:24.636Z,77.05
2018-11-28T05:17:54.405Z,77.96
2018-11-28T05:20:28.073Z,78.61
2018-11-28T05:22:56.976Z,78.36
2018-11-28T05:25:28.149Z,78.02
2018-11-28T05:27:59.182Z,76.57
2018-11-28T05:30:30.705Z,76.59
2018-11-28T05:32:59.693Z,76.48
2018-11-28T05:35:37.623Z,76.14
2018-11-28T05:38:09.859Z,76.76
2018-11-28T05:40:38.910Z,76.83
2018-11-28T05:43:08.694Z,76.59
2018-11-28T05:45:37.825Z,76.82
2018-11-28T05:48:06.974Z,77.08
2018-11-28T05:50:38.242Z,76.60
2018-11-28T05:53:07.028Z,77.39
2018-11-28T05:55:36.568Z,76.66
2018-11-28T05:58:06.110Z,76.83
2018-11-28T06:00:41.229Z,76.42
2018-11-28T06:03:12.727Z,76.24
2018-11-28T06:05:42.351Z,75.01
2018-11-28T06:08:11.737Z,75.34
2018-11-28T06:10:40.797Z,75.07
2018-11-28T06:13:09.629Z,75.12
2018-11-28T06:15:38.479Z,75.26
2018-11-28T06:18:08.588Z,75.21
2018-11-28T06:20:37.655Z,75.11
2018-11-28T06:23:07.753Z,75.42
2018-11-28T06:25:36.817Z,75.37
2018-11-28T06:28:06.053Z,75.21
2018-11-28T06:30:35.495Z,75.65
2018-11-28T06:33:04.369Z,75.63
2018-11-28T06:35:33.113Z,75.66
2018-11-28T06:38:03.013Z,75.59
2018-11-28T06:40:31.741Z,75.11
2018-11-28T06:43:01.255Z,74.93
2018-11-28T06:45:30.008Z,74.41
2018-11-28T06:47:58.835Z,75.16
2018-11-28T06:50:28.400Z,76.04
2018-11-28T06:52:57.201Z,76.18
2018-11-28T06:55:27.004Z,75.71
2018-11-28T06:57:55.986Z,75.97
2018-11-28T07:00:25.371Z,76.41
2018-11-28T07:02:55.182Z,75.26
2018-11-28T07:05:24.227Z,75.02
2018-11-28T07:07:53.942Z,74.42
2018-11-28T07:10:23.281Z,75.14
2018-11-28T07:12:52.402Z,74.29
2018-11-28T07:15:22.609Z,74.25
2018-11-28T07:17:51.370Z,74.72
2018-11-28T07:20:20.244Z,74.16
2018-11-28T07:22:49.091Z,73.97
2018-11-28T07:25:19.679Z,74.52
2018-11-28T07:27:49.104Z,73.93
2018-11-28T07:30:19.617Z,74.04
2018-11-28T07:32:51.648Z,73.48
2018-11-28T07:35:20.501Z,73.96
2018-11-28T07:37:51.072Z,74.86
2018-11-28T07:40:26.458Z,74.85
2018-11-28T07:43:13.593Z,74.80
2018-11-28T07:45:44.828Z,74.96
2018-11-28T07:48:13.848Z,74.65
2018-11-28T07:50:43.355Z,74.57
2018-11-28T07:53:12.265Z,74.66
2018-11-28T07:55:41.821Z,74.85
2018-11-28T07:58:11.186Z,74.37
2018-11-28T08:00:41.048Z,74.81
2018-11-28T08:03:10.168Z,74.55
2018-11-28T08:05:39.513Z,74.50
2018-11-28T08:08:10.776Z,74.17
2018-11-28T08:10:39.621Z,74.53
2018-11-28T08:13:08.917Z,73.66
2018-11-28T08:15:37.831Z,73.50
2018-11-28T08:18:06.746Z,73.64
2018-11-28T08:20:36.013Z,73.45
2018-11-28T08:23:05.622Z,73.85
2018-11-28T08:25:34.532Z,73.62
2018-11-28T08:28:03.480Z,73.80
2018-11-28T08:30:32.946Z,74.00
2018-11-28T08:33:01.729Z,74.33
2018-11-28T08:35:30.482Z,75.37
2018-11-28T08:38:00.036Z,74.10
2018-11-28T08:40:28.872Z,75.08
2018-11-28T08:42:58.840Z,74.89
2018-11-28T08:45:27.650Z,74.50
2018-11-28T08:47:57.576Z,73.71
2018-11-28T08:50:30.349Z,74.25
2018-11-28T08:52:59.154Z,75.08
2018-11-28T08:55:28.821Z,75.17
2018-11-28T08:57:57.606Z,74.19
2018-11-28T09:00:27.127Z,74.13
2018-11-28T09:02:57.432Z,74.09
2018-11-28T09:05:27.616Z,73.73
2018-11-28T09:07:57.371Z,73.33
2018-11-28T09:10:26.168Z,75.15
2018-11-28T09:12:54.953Z,75.31
2018-11-28T09:15:25.723Z,74.62
2018-11-28T09:17:54.574Z,75.12
2018-11-28T09:20:23.481Z,74.07
2018-11-28T09:22:52.290Z,73.82
2018-11-28T09:25:21.866Z,74.64
2018-11-28T09:27:54.855Z,74.41
2018-11-28T09:30:24.417Z,73.87
2018-11-28T09:32:53.222Z,73.83
2018-11-28T09:35:22.145Z,73.93
2018-11-28T09:37:52.053Z,74.14
2018-11-28T09:40:26.003Z,73.29
2018-11-28T09:42:57.024Z,72.03
2018-11-28T09:45:25.828Z,72.89
2018-11-28T09:47:54.579Z,72.95
2018-11-28T09:50:26.002Z,73.65
2018-11-28T09:52:55.664Z,74.16
2018-11-28T09:55:26.069Z,74.83
2018-11-28T09:57:54.975Z,75.19
2018-11-28T10:00:28.643Z,75.01
2018-11-28T10:02:59.859Z,74.71
2018-11-28T10:05:31.689Z,75.78
2018-11-28T10:08:01.904Z,76.02
2018-11-28T10:10:30.676Z,75.67
2018-11-28T10:12:59.467Z,74.80
2018-11-28T10:15:29.108Z,74.41
2018-11-28T10:17:58.017Z,75.36
2018-11-28T10:20:26.923Z,76.61
2018-11-28T10:22:55.755Z,76.83
2018-11-28T10:25:26.345Z,76.58
2018-11-28T10:27:59.369Z,77.67
2018-11-28T10:30:30.841Z,76.92
2018-11-28T10:32:59.609Z,77.35
2018-11-28T10:35:28.495Z,76.65
2018-11-28T10:37:58.518Z,77.45
2018-11-28T10:40:27.307Z,75.48
2018-11-28T10:42:58.048Z,75.09
2018-11-28T10:45:27.817Z,74.53
2018-11-28T10:51:29.362Z,75.31
2018-11-28T10:53:59.149Z,75.63
2018-11-28T10:56:28.461Z,75.30
2018-11-28T10:58:57.327Z,76.44
2018-11-28T11:01:27.476Z,75.99
2018-11-28T11:04:00.438Z,75.38
2018-11-28T11:06:34.450Z,75.59
2018-11-28T11:09:12.337Z,75.68
2018-11-28T11:11:46.503Z,76.06
2018-11-28T11:14:20.467Z,75.89
2018-11-28T11:16:49.256Z,76.08
2018-11-28T11:19:18.218Z,76.33
2018-11-28T11:21:47.677Z,76.22
2018-11-28T11:24:17.572Z,76.88
2018-11-28T11:26:46.669Z,75.88
2018-11-28T11:29:16.575Z,76.32
2018-11-28T11:31:46.094Z,77.14
2018-11-28T11:34:15.319Z,77.11
2018-11-28T11:36:44.122Z,76.47
2018-11-28T11:39:13.652Z,75.93
2018-11-28T11:41:46.309Z,76.97
2018-11-28T11:44:15.307Z,76.84
2018-11-28T11:46:45.094Z,77.24
2018-11-28T11:49:13.857Z,78.03
2018-11-28T11:51:43.422Z,76.27
2018-11-28T11:54:13.014Z,76.65
2018-11-28T11:56:42.475Z,76.38
2018-11-28T11:59:11.206Z,75.76
2018-11-28T12:01:40.773Z,76.34
2018-11-28T12:04:09.613Z,77.00
2018-11-28T12:06:39.471Z,76.95
2018-11-28T12:09:10.137Z,77.86
2018-11-28T12:11:38.952Z,76.97
2018-11-28T12:14:07.742Z,76.54
2018-11-28T12:16:36.556Z,75.45
2018-11-28T12:19:06.436Z,75.58
2018-11-28T12:21:35.428Z,76.79
2018-11-28T12:24:05.638Z,76.75
2018-11-28T12:26:34.476Z,76.43
2018-11-28T12:29:04.237Z,77.29
2018-11-28T12:31:33.129Z,76.49
2018-11-28T12:34:01.935Z,76.47
2018-11-28T12:36:30.741Z,77.78
2018-11-28T12:39:00.487Z,77.88
2018-11-28T12:41:30.309Z,78.02
2018-11-28T12:44:01.475Z,78.66
2018-11-28T12:46:30.793Z,79.49
2018-11-28T12:48:59.586Z,78.71
2018-11-28T12:51:29.361Z,79.07
2018-11-28T12:53:58.786Z,78.58
2018-11-28T12:57:31.620Z,78.82
2018-11-28T13:00:06.312Z,78.46
2018-11-28T13:02:35.861Z,79.03
2018-11-28T13:05:05.401Z,79.60
2018-11-28T13:07:34.769Z,79.83
2018-11-28T13:10:03.847Z,78.80
2018-11-28T13:12:32.636Z,79.51
2018-11-28T13:15:04.258Z,79.22
2018-11-28T13:17:33.038Z,79.26
2018-11-28T13:20:01.910Z,78.91
2018-11-28T13:22:30.689Z,78.94
2018-11-28T13:25:00.296Z,78.76
2018-11-28T13:27:29.068Z,79.82
2018-11-28T13:29:59.159Z,80.12
2018-11-28T13:32:27.933Z,79.67
2018-11-28T13:34:57.393Z,80.16
2018-11-28T13:37:26.156Z,80.15
2018-11-28T13:39:55.690Z,80.09
2018-11-28T13:42:25.389Z,79.96
2018-11-28T13:44:54.157Z,80.27
2018-11-28T13:47:22.893Z,80.70
2018-11-28T13:49:52.285Z,81.20
2018-11-28T13:52:21.150Z,81.58
2018-11-28T13:55:37.677Z,81.25
2018-11-28T13:57:20.459Z,82.17
2018-11-28T13:59:50.028Z,81.85
2018-11-28T14:02:19.749Z,82.14
2018-11-28T14:04:48.548Z,82.11
2018-11-28T14:07:18.122Z,81.82
2018-11-28T14:10:49.732Z,82.79
2018-11-28T14:13:18.538Z,82.87
2018-11-28T14:15:47.322Z,83.74
2018-11-28T14:18:18.034Z,84.26
2018-11-28T14:20:47.064Z,83.65
2018-11-28T14:23:17.405Z,83.67
2018-11-28T14:25:46.285Z,84.59
2018-11-28T14:28:15.312Z,84.82
2018-11-28T14:30:45.602Z,84.37
2018-11-28T14:33:45.329Z,83.93
2018-11-28T14:36:14.333Z,83.92
2018-11-28T14:38:43.916Z,84.82
2018-11-28T14:41:13.356Z,84.32
2018-11-28T14:43:42.930Z,84.62
2018-11-28T14:46:11.672Z,85.26
2018-11-28T14:48:40.488Z,84.57
2018-11-28T14:51:09.902Z,85.11
2018-11-28T14:53:38.662Z,84.18
2018-11-28T14:56:08.312Z,84.20
2018-11-28T14:58:38.808Z,84.80
2018-11-28T15:01:08.727Z,84.76
2018-11-28T15:03:38.137Z,84.66
2018-11-28T15:06:15.513Z,84.93
2018-11-28T15:08:45.358Z,84.57
2018-11-28T15:11:14.972Z,85.76
2018-11-28T15:13:44.471Z,85.99
2018-11-28T15:16:13.378Z,85.27
2018-11-28T15:18:52.752Z,84.76
2018-11-28T15:21:22.177Z,85.24
2018-11-28T15:23:52.702Z,84.83
2018-11-28T15:26:22.311Z,85.23
2018-11-28T15:28:52.454Z,85.50
2018-11-28T15:31:21.224Z,85.46
2018-11-28T15:33:50.431Z,86.85
2018-11-28T15:36:19.236Z,86.56
2018-11-28T15:38:48.887Z,86.14
2018-11-28T15:41:17.870Z,85.62
2018-11-28T15:43:48.480Z,86.11
2018-11-28T15:46:17.763Z,85.93
2018-11-28T15:48:48.139Z,86.42
2018-11-28T15:51:17.669Z,86.49
2018-11-28T15:53:48.227Z,86.28
2018-11-28T15:56:18.177Z,86.12
2018-11-28T15:58:47.433Z,85.68
2018-11-28T16:01:17.793Z,87.08
2018-11-28T16:03:48.832Z,86.99
2018-11-28T16:06:17.739Z,86.18
2018-11-28T16:08:47.669Z,86.43
2018-11-28T16:11:17.994Z,85.96
2018-11-28T16:13:48.137Z,86.55
2018-11-28T16:16:17.373Z,86.10
2018-11-28T16:18:48.454Z,86.33
2018-11-28T16:21:17.449Z,86.30
2018-11-28T16:23:50.287Z,86.14
2018-11-28T16:26:19.038Z,86.41
2018-11-28T16:28:48.466Z,86.64
2018-11-28T16:31:18.164Z,86.85
2018-11-28T16:33:48.639Z,86.95
2018-11-28T16:36:18.117Z,87.69
2018-11-28T16:38:48.999Z,87.50
2018-11-28T16:41:18.008Z,87.66
2018-11-28T16:43:47.741Z,87.58
2018-11-28T16:46:16.850Z,87.34
2018-11-28T16:48:46.341Z,87.96
2018-11-28T16:51:16.276Z,87.04
2018-11-28T16:53:45.381Z,86.97
2018-11-28T16:56:15.462Z,87.50
2018-11-28T16:58:44.943Z,86.70
2018-11-28T17:01:14.454Z,86.98
2018-11-28T17:03:43.285Z,87.11
2018-11-28T17:06:12.060Z,86.40
2018-11-28T17:08:43.373Z,87.64
2018-11-28T17:11:12.387Z,87.41
2018-11-28T17:13:41.136Z,87.06
2018-11-28T17:16:10.020Z,87.02
2018-11-28T17:18:40.000Z,87.51
2018-11-28T17:21:08.938Z,86.98
2018-11-28T17:23:38.699Z,87.69
2018-11-28T17:26:07.643Z,86.96
2018-11-28T17:28:37.472Z,87.56
2018-11-28T17:31:07.631Z,87.84
2018-11-28T17:33:37.180Z,87.40
2018-11-28T17:37:09.050Z,88.32
2018-11-28T17:39:38.639Z,87.07
2018-11-28T17:42:08.306Z,88.29
2018-11-28T17:44:42.212Z,87.37
2018-11-28T17:47:24.894Z,88.56
2018-11-28T17:49:55.113Z,88.75
2018-11-28T17:52:28.276Z,88.27
2018-11-28T17:55:18.979Z,88.61
2018-11-28T17:57:48.688Z,87.45
2018-11-28T18:00:29.803Z,88.55
2018-11-28T18:03:00.430Z,88.12
2018-11-28T18:05:30.495Z,87.71
2018-11-28T18:07:59.794Z,88.17
2018-11-28T18:10:29.145Z,88.11
2018-11-28T18:13:07.239Z,88.00
2018-11-28T18:15:36.232Z,87.65
2018-11-28T18:18:06.153Z,87.98
2018-11-28T18:20:36.253Z,87.40
2018-11-28T18:23:07.799Z,87.51
2018-11-28T18:25:38.414Z,87.76
2018-11-28T18:28:08.936Z,87.40
2018-11-28T18:30:39.026Z,87.23
2018-11-28T18:33:08.819Z,87.02
2018-11-28T18:35:37.785Z,86.46
2018-11-28T18:38:08.105Z,87.34
2018-11-28T18:40:38.977Z,86.31
2018-11-28T18:43:10.074Z,87.17
2018-11-28T18:45:47.558Z,86.94
2018-11-28T18:48:16.578Z,86.60
2018-11-28T18:50:47.061Z,86.15
2018-11-28T18:53:16.545Z,86.08
2018-11-28T18:55:47.517Z,86.25
2018-11-28T18:58:17.838Z,85.65
2018-11-28T19:00:48.215Z,85.50
2018-11-28T19:03:17.432Z,86.28
2018-11-28T19:05:47.382Z,86.07
2018-11-28T19:08:16.990Z,85.77
2018-11-28T19:10:47.048Z,85.73
2018-11-28T19:13:16.706Z,86.09
2018-11-28T19:15:46.486Z,85.16
2018-11-28T19:18:16.444Z,85.77
2018-11-28T19:20:45.385Z,86.02
2018-11-28T19:23:15.731Z,85.59
2018-11-28T19:25:49.930Z,86.38
2018-11-28T19:28:17.049Z,86.35
2018-11-28T19:30:46.490Z,86.64
2018-11-28T19:33:15.636Z,85.85
2018-11-28T19:35:44.581Z,86.75
2018-11-28T19:38:15.997Z,87.46
2018-11-28T19:40:50.811Z,87.06
2018-11-28T19:43:20.683Z,87.22
2018-11-28T19:45:49.498Z,87.24
2018-11-28T19:48:18.333Z,87.50
2018-11-28T19:50:48.161Z,87.41
2018-11-28T19:53:17.204Z,87.53
2018-11-28T19:55:47.212Z,87.61
2018-11-28T19:58:16.529Z,87.71
2018-11-28T20:00:47.019Z,89.10
2018-11-28T20:03:16.509Z,88.57
2018-11-28T20:05:45.446Z,88.28
2018-11-28T20:08:15.243Z,88.34
2018-11-28T20:10:44.031Z,89.29
2018-11-28T20:13:12.929Z,88.89
2018-11-28T20:15:43.675Z,88.58
2018-11-28T20:18:12.462Z,88.23
2018-11-28T20:20:41.416Z,88.75
2018-11-28T20:23:11.762Z,88.93
2018-11-28T20:25:41.444Z,89.49
2018-11-28T20:28:12.249Z,89.53
2018-11-28T20:30:46.590Z,89.70
2018-11-28T20:33:16.882Z,89.28
2018-11-28T20:35:47.231Z,89.34
2018-11-28T20:38:21.667Z,89.23
2018-11-28T20:40:50.577Z,88.40
2018-11-28T20:43:19.939Z,89.32
2018-11-28T20:45:48.901Z,88.83
2018-11-28T20:48:18.651Z,88.65
2018-11-28T20:50:50.348Z,89.00
2018-11-28T20:53:20.076Z,88.57
2018-11-28T20:55:49.902Z,88.51
2018-11-28T20:58:18.673Z,88.18
2018-11-28T21:00:48.279Z,88.77
2018-11-28T21:03:17.993Z,87.31
2018-11-28T21:05:47.169Z,88.03
2018-11-28T21:08:16.903Z,87.08
2018-11-28T21:10:46.318Z,87.38
2018-11-28T21:13:15.707Z,87.27
2018-11-28T21:15:45.596Z,87.26
2018-11-28T21:18:15.302Z,87.34
2018-11-28T21:20:46.364Z,87.27
2018-11-28T21:23:17.370Z,86.89
2018-11-28T21:25:46.621Z,86.37
2018-11-28T21:28:17.067Z,86.34
2018-11-28T21:30:47.366Z,86.42
2018-11-28T21:33:16.773Z,86.59
2018-11-28T21:35:48.770Z,86.06
2018-11-28T21:38:18.745Z,85.86
2018-11-28T21:40:48.000Z,86.18
2018-11-28T21:43:17.810Z,86.58
2018-11-28T21:45:46.908Z,85.59
2018-11-28T21:48:16.040Z,85.34
2018-11-28T21:50:45.863Z,85.41
2018-11-28T21:53:14.989Z,85.88
2018-11-28T21:55:44.501Z,85.65
2018-11-28T21:58:13.278Z,85.82
2018-11-28T22:00:42.813Z,85.51
2018-11-28T22:03:11.612Z,85.64
2018-11-28T22:05:40.443Z,85.31
2018-11-28T22:08:10.277Z,86.04
2018-11-28T22:11:09.632Z,85.17
2018-11-28T22:13:38.420Z,85.49
2018-11-28T22:16:12.646Z,85.20
2018-11-28T22:18:54.371Z,85.17
2018-11-28T22:21:24.769Z,85.21
2018-11-28T22:23:55.477Z,85.30
2018-11-28T22:26:36.730Z,84.70
2018-11-28T22:29:10.489Z,84.58
2018-11-28T22:31:40.255Z,84.69
2018-11-28T22:34:10.887Z,84.89
2018-11-28T22:36:41.349Z,84.80
2018-11-28T22:39:12.598Z,84.52
2018-11-28T22:41:42.616Z,84.39
2018-11-28T22:45:15.467Z,84.02
2018-11-28T22:47:51.556Z,84.18
2018-11-28T22:50:23.379Z,83.68
2018-11-28T22:53:09.516Z,83.39
2018-11-28T22:55:41.320Z,83.36
2018-11-28T22:58:12.927Z,83.12
2018-11-28T23:00:48.653Z,82.75
2018-11-28T23:03:19.319Z,82.90
2018-11-28T23:05:51.155Z,82.49
2018-11-28T23:08:22.138Z,82.55
2018-11-28T23:10:51.824Z,82.23
2018-11-28T23:13:24.739Z,81.92
2018-11-28T23:15:54.604Z,81.77
2018-11-28T23:18:23.981Z,81.35
2018-11-28T23:20:52.958Z,82.01
2018-11-28T23:23:22.316Z,80.92
2018-11-28T23:25:52.140Z,80.74
2018-11-28T23:28:22.652Z,81.19
2018-11-28T23:30:52.150Z,81.07
2018-11-28T23:33:20.949Z,81.07
2018-11-28T23:35:49.900Z,80.82
2018-11-28T23:38:20.434Z,80.12
2018-11-28T23:40:50.436Z,80.19
2018-11-28T23:43:21.066Z,80.05
2018-11-28T23:45:49.986Z,79.71
2018-11-28T23:48:19.561Z,79.78
2018-11-28T23:50:49.174Z,79.79
2018-11-28T23:53:18.369Z,79.59
2018-11-28T23:55:49.086Z,79.34
2018-11-28T23:58:18.757Z,79.53
